Time;durP1;ratioP1;P1;durP2;ratioP2;P2;SDS_P1;SDS_P2;PMS_P1;PMS_P2;Temp;Humidity;BMP_temperature;BMP_pressure;BME280_temperature;BME280_humidity;BME280_pressure;Samples;Min_cycle;Max_cycle;Signal;HPM_P1;HPM_P2
2023/08/14 00:02:03;;;;;;;6.30;5.30;;;;;;;21.38;72.08;99045.52;221451;1305;22579;-74
2023/08/14 00:07:05;;;;;;;6.60;5.00;;;;;;;21.34;72.16;99050.21;221600;1301;22591;-75
2023/08/14 00:12:07;;;;;;;7.50;6.10;;;;;;;21.30;72.35;99045.05;221502;1304;24317;-74
2023/08/14 00:17:09;;;;;;;6.60;5.80;;;;;;;21.27;72.49;99048.56;221566;1305;22575;-74
2023/08/14 00:22:11;;;;;;;7.60;5.80;;;;;;;21.24;72.58;99049.91;221510;1305;22593;-75
2023/08/14 00:27:14;;;;;;;7.10;5.80;;;;;;;21.20;72.63;99056.48;221625;1305;22595;-73
2023/08/14 00:32:16;;;;;;;6.30;5.70;;;;;;;21.15;72.88;99062.36;221582;1298;22742;-74
2023/08/14 00:37:18;;;;;;;6.60;5.90;;;;;;;21.11;73.03;99066.02;221584;1282;22572;-74
2023/08/14 00:42:20;;;;;;;12.50;5.90;;;;;;;21.08;73.09;99068.71;221263;1298;22614;-74
2023/08/14 00:47:22;;;;;;;7.80;6.10;;;;;;;21.04;73.34;99074.54;221599;1301;22564;-75
2023/08/14 00:52:27;;;;;;;6.60;6.00;;;;;;;21.03;73.43;99078.76;221521;1304;22607;-74
2023/08/14 00:57:30;;;;;;;6.90;6.20;;;;;;;21.01;73.62;99078.80;221609;1304;22604;-74
2023/08/14 01:02:33;;;;;;;7.20;5.80;;;;;;;21.01;73.81;99078.09;221319;1298;22608;-75
2023/08/14 01:07:36;;;;;;;5.60;5.10;;;;;;;21.02;73.90;99079.45;221627;1306;22594;-74
2023/08/14 01:12:50;;;;;;;6.70;6.00;;;;;;;21.00;73.83;99082.63;221482;1305;22591;-74
2023/08/14 01:17:57;;;;;;;7.70;6.00;;;;;;;20.97;73.90;99083.77;221497;1305;24256;-74
2023/08/14 01:23:17;;;;;;;6.80;5.80;;;;;;;20.93;73.96;99087.42;221577;1301;22601;-75
2023/08/14 01:28:19;;;;;;;;;;;;;;;20.88;74.04;99084.08;221595;1298;22626;-74
2023/08/14 01:33:21;;;;;;;7.40;5.70;;;;;;;20.79;74.03;99084.17;221486;1295;24421;-74
2023/08/14 01:38:56;;;;;;;7.00;6.20;;;;;;;20.69;74.21;99085.95;221557;1302;22591;-74
2023/08/14 01:44:01;;;;;;;7.10;6.40;;;;;;;20.59;74.28;99079.58;221456;1282;22614;-74
2023/08/14 01:49:04;;;;;;;6.20;5.60;;;;;;;20.53;74.48;99076.30;221465;1282;22594;-75
2023/08/14 01:54:06;;;;;;;6.60;6.00;;;;;;;20.44;74.58;99070.48;221558;1295;22562;-74
2023/08/14 01:59:08;;;;;;;6.70;5.80;;;;;;;20.37;74.88;99068.46;221533;1301;22600;-74
2023/08/14 02:04:11;;;;;;;6.20;5.70;;;;;;;20.34;75.05;99066.10;221548;1305;22601;-74
2023/08/14 02:09:13;;;;;;;6.90;6.20;;;;;;;20.33;75.18;99063.35;221560;1305;22574;-74
2023/08/14 02:14:14;;;;;;;7.80;6.30;;;;;;;20.30;75.24;99068.73;221498;1302;22564;-74
2023/08/14 02:19:17;;;;;;;7.50;6.10;;;;;;;20.27;75.37;99070.55;221501;1301;22874;-73
2023/08/14 02:24:19;;;;;;;7.30;6.30;;;;;;;20.23;75.37;99073.48;221511;1304;22678;-74
2023/08/14 02:29:20;;;;;;;9.30;6.90;;;;;;;20.20;75.54;99073.31;221532;1304;22569;-74
2023/08/14 02:34:45;;;;;;;8.20;6.40;;;;;;;20.15;75.54;99075.67;221559;1303;22595;-74
2023/08/14 02:39:48;;;;;;;8.00;6.70;;;;;;;20.10;75.69;99079.08;221497;1298;22573;-74
2023/08/14 02:44:50;;;;;;;7.80;6.70;;;;;;;20.03;75.73;99081.21;221494;1305;22591;-74
2023/08/14 02:49:52;;;;;;;7.70;6.90;;;;;;;19.97;75.91;99082.23;221540;1298;22579;-74
2023/08/14 02:54:55;;;;;;;7.30;6.60;;;;;;;19.91;76.05;99081.45;221463;1301;22579;-74
2023/08/14 02:59:56;;;;;;;7.80;6.80;;;;;;;19.86;76.22;99083.64;221531;1305;25258;-74
2023/08/14 03:04:59;;;;;;;9.40;6.20;;;;;;;19.81;76.21;99089.11;221522;1298;22565;-74
2023/08/14 03:10:01;;;;;;;7.70;6.90;;;;;;;19.76;76.30;99093.63;221529;1301;22730;-75
2023/08/14 03:15:06;;;;;;;8.90;6.80;;;;;;;19.75;76.37;99108.46;221527;1292;22573;-73
2023/08/14 03:20:09;;;;;;;6.00;5.40;;;;;;;19.73;76.45;99118.05;221326;1304;22565;-73
2023/08/14 03:25:11;;;;;;;7.30;6.70;;;;;;;19.73;76.54;99119.59;221532;1283;25360;-73
2023/08/14 03:30:13;;;;;;;7.70;6.10;;;;;;;19.71;76.59;99116.89;221287;1305;22568;-74
2023/08/14 03:35:16;;;;;;;7.00;6.40;;;;;;;19.67;76.58;99121.25;221523;1292;22568;-74
2023/08/14 03:40:18;;;;;;;9.70;7.00;;;;;;;19.62;76.73;99132.23;221497;1305;22595;-74
2023/08/14 03:45:20;;;;;;;15.70;7.00;;;;;;;19.59;76.87;99131.63;221384;1304;23782;-74
2023/08/14 03:50:22;;;;;;;7.60;6.90;;;;;;;19.58;76.99;99130.57;221569;1298;22569;-74
2023/08/14 03:55:24;;;;;;;10.00;7.30;;;;;;;19.58;77.13;99126.33;221360;1292;22595;-74
2023/08/14 04:00:26;;;;;;;6.80;6.10;;;;;;;19.59;77.39;99123.11;221248;1306;22562;-74
2023/08/14 04:05:29;;;;;;;7.10;6.50;;;;;;;19.63;77.21;99127.70;221586;1305;22598;-75
2023/08/14 04:10:32;;;;;;;7.00;6.40;;;;;;;19.68;77.30;99128.88;221594;1304;22569;-74
2023/08/14 04:15:34;;;;;;;6.80;6.20;;;;;;;19.75;77.09;99131.74;221271;1304;25261;-74
2023/08/14 04:20:36;;;;;;;5.80;5.20;;;;;;;19.87;77.05;99132.55;221521;1301;22588;-74
2023/08/14 04:25:38;;;;;;;7.20;5.50;;;;;;;20.03;76.92;99134.33;221294;1305;22568;-74
2023/08/14 04:30:39;;;;;;;7.90;5.10;;;;;;;20.27;76.68;99142.10;221500;1305;22592;-74
2023/08/14 04:35:41;;;;;;;5.80;5.20;;;;;;;20.54;76.36;99141.19;221506;1283;22623;-74
2023/08/14 04:40:44;;;;;;;6.40;5.50;;;;;;;20.81;75.93;99140.65;221554;1301;22584;-74
2023/08/14 04:45:46;;;;;;;7.00;5.70;;;;;;;21.06;75.44;99143.76;221293;1304;22580;-74
2023/08/14 04:50:49;;;;;;;9.30;5.50;;;;;;;21.30;74.92;99143.48;221539;1305;22572;-74
2023/08/14 04:55:51;;;;;;;8.60;5.60;;;;;;;21.53;74.77;99144.48;221545;1304;22677;-74
2023/08/14 05:00:53;;;;;;;6.30;5.00;;;;;;;21.76;74.52;99138.08;221269;1306;25364;-75
2023/08/14 05:05:55;;;;;;;6.70;5.50;;;;;;;21.94;74.11;99138.02;221496;1282;22566;-74
2023/08/14 05:10:57;;;;;;;8.90;5.70;;;;;;;22.09;73.61;99146.17;221402;1303;22553;-75
2023/08/14 05:15:59;;;;;;;7.10;5.90;;;;;;;22.26;73.04;99144.83;221496;1292;23893;-75
2023/08/14 05:21:09;;;;;;;6.20;5.40;;;;;;;22.41;72.72;99145.83;221572;1298;25354;-75
2023/08/14 05:26:12;;;;;;;7.60;5.10;;;;;;;22.57;72.65;99148.17;221550;1305;25367;-75
2023/08/14 05:31:14;;;;;;;6.30;4.70;;;;;;;22.74;72.25;99143.52;221512;1304;22572;-75
2023/08/14 05:36:16;;;;;;;7.00;5.30;;;;;;;22.96;72.21;99141.48;221507;1305;25434;-75
2023/08/14 05:41:18;;;;;;;6.50;5.90;;;;;;;23.13;71.59;99144.95;221320;1301;22569;-75
2023/08/14 05:46:23;;;;;;;6.30;5.40;;;;;;;23.29;71.15;99143.36;221620;1289;22580;-75
2023/08/14 05:51:26;;;;;;;5.70;5.20;;;;;;;23.45;71.00;99140.30;221553;1286;22560;-74
2023/08/14 05:56:27;;;;;;;5.80;5.20;;;;;;;23.59;70.70;99140.55;221527;1301;22562;-74
2023/08/14 06:01:29;;;;;;;6.90;5.00;;;;;;;23.69;70.12;99138.93;221533;1306;22568;-74
2023/08/14 06:06:31;;;;;;;5.60;5.10;;;;;;;23.75;69.50;99144.83;221542;1302;22564;-74
2023/08/14 06:11:33;;;;;;;6.70;5.20;;;;;;;23.82;69.30;99145.39;221288;1304;22573;-73
2023/08/14 06:16:37;;;;;;;7.30;5.60;;;;;;;23.94;69.19;99142.08;221470;1304;22573;-74
2023/08/14 06:21:39;;;;;;;6.50;5.80;;;;;;;24.04;68.82;99145.02;221555;1304;22615;-74
2023/08/14 06:26:41;;;;;;;6.40;5.80;;;;;;;24.20;68.84;99143.66;221630;1304;22573;-74
2023/08/14 06:31:43;;;;;;;5.80;5.30;;;;;;;24.44;68.49;99144.94;221591;1301;23435;-74
2023/08/14 06:36:45;;;;;;;7.80;5.60;;;;;;;24.67;67.71;99139.17;221531;1304;22576;-73
2023/08/14 06:41:47;;;;;;;7.60;5.20;;;;;;;24.85;67.20;99142.52;221514;1305;24268;-74
2023/08/14 06:46:52;;;;;;;6.00;5.50;;;;;;;25.01;66.46;99149.55;221538;1301;22583;-73
2023/08/14 06:51:54;;;;;;;5.70;5.20;;;;;;;25.09;66.03;99155.21;221558;1304;22572;-75
2023/08/14 06:56:56;;;;;;;5.90;5.20;;;;;;;25.12;65.35;99160.61;221524;1301;22551;-74
2023/08/14 07:01:58;;;;;;;5.60;5.10;;;;;;;25.11;65.21;99167.85;221582;1301;22585;-74
2023/08/14 07:07:00;;;;;;;6.90;5.40;;;;;;;25.11;65.30;99164.77;221545;1303;22598;-75
2023/08/14 07:12:02;;;;;;;6.80;5.80;;;;;;;25.20;65.32;99168.34;221571;1304;22556;-74
2023/08/14 07:17:04;;;;;;;6.30;5.80;;;;;;;25.29;65.37;99173.83;221590;1289;22576;-74
2023/08/14 07:22:06;;;;;;;7.50;6.20;;;;;;;25.35;65.18;99174.41;221586;1290;22568;-74
2023/08/14 07:27:08;;;;;;;9.10;6.00;;;;;;;25.42;65.37;99170.70;221296;1304;22586;-74
2023/08/14 07:32:10;;;;;;;7.10;6.40;;;;;;;25.56;65.32;99166.34;221628;1302;22581;-74
2023/08/14 07:37:12;;;;;;;6.70;6.10;;;;;;;25.62;65.07;99171.48;221576;1305;22573;-73
2023/08/14 07:42:14;;;;;;;7.70;5.90;;;;;;;25.59;64.95;99170.16;221557;1304;22609;-74
2023/08/14 07:47:17;;;;;;;7.00;6.00;;;;;;;25.51;64.97;99170.04;221498;1303;23026;-74
2023/08/14 07:52:19;;;;;;;8.60;6.70;;;;;;;25.42;64.87;99171.14;221591;1302;24361;-73
2023/08/14 07:57:21;;;;;;;7.10;6.50;;;;;;;25.30;64.60;99174.75;221262;1299;22603;-75
2023/08/14 08:02:23;;;;;;;7.00;6.40;;;;;;;25.21;64.96;99175.70;221613;1298;22575;-74
2023/08/14 08:07:26;;;;;;;6.90;6.30;;;;;;;25.27;65.19;99177.84;221552;1302;22627;-74
2023/08/14 08:12:29;;;;;;;7.30;6.60;;;;;;;25.43;65.32;99172.66;221304;1304;25271;-74
2023/08/14 08:17:31;;;;;;;6.30;5.60;;;;;;;25.64;64.67;99170.70;221428;1305;22573;-74
2023/08/14 08:22:33;;;;;;;6.10;5.60;;;;;;;25.86;64.41;99173.21;221540;1288;22565;-74
2023/08/14 08:27:35;;;;;;;6.40;5.70;;;;;;;26.09;64.07;99170.29;221598;1298;22658;-75
2023/08/14 08:32:38;;;;;;;5.50;4.70;;;;;;;26.31;63.34;99158.95;221523;1301;22585;-75
2023/08/14 08:37:41;;;;;;;5.40;4.90;;;;;;;26.53;62.51;99163.78;221532;1301;22575;-75
2023/08/14 08:42:43;;;;;;;5.00;4.50;;;;;;;26.76;62.05;99162.85;221506;1304;24253;-75
2023/08/14 08:47:49;;;;;;;6.30;4.10;;;;;;;26.99;61.26;99162.11;221288;1304;22576;-74
2023/08/14 08:52:52;;;;;;;5.00;4.50;;;;;;;27.23;60.62;99163.39;221533;1304;22669;-75
2023/08/14 08:57:57;;;;;;;4.60;4.30;;;;;;;27.41;59.40;99161.04;221620;1301;22569;-74
2023/08/14 09:03:00;;;;;;;5.00;4.60;;;;;;;27.59;59.34;99157.91;221523;1305;22606;-74
2023/08/14 09:08:03;;;;;;;4.80;4.30;;;;;;;27.78;58.67;99153.23;221490;1304;22582;-75
2023/08/14 09:13:05;;;;;;;7.60;4.60;;;;;;;27.93;57.90;99147.98;221598;1301;22576;-74
2023/08/14 09:18:11;;;;;;;5.30;4.90;;;;;;;28.04;57.23;99148.14;221601;1305;22588;-76
2023/08/14 09:23:13;;;;;;;4.60;4.20;;;;;;;28.18;57.37;99148.13;221610;1306;22561;-74
2023/08/14 09:28:17;;;;;;;4.60;4.20;;;;;;;28.27;55.51;99145.12;221269;1306;22690;-74
2023/08/14 09:33:19;;;;;;;4.90;4.40;;;;;;;28.39;56.22;99145.75;221293;1292;22569;-74
2023/08/14 09:38:22;;;;;;;6.80;4.60;;;;;;;28.55;55.59;99145.02;221586;1298;22600;-74
2023/08/14 09:43:25;;;;;;;3.90;3.60;;;;;;;28.71;55.00;99148.16;221550;1301;22576;-79
2023/08/14 09:48:42;;;;;;;4.70;4.00;;;;;;;28.81;53.59;99147.20;221313;1304;22614;-75
2023/08/14 09:53:48;;;;;;;4.70;4.30;;;;;;;28.82;52.79;99148.81;221568;1305;23089;-75
2023/08/14 09:58:52;;;;;;;5.70;4.40;;;;;;;28.92;53.84;99151.75;221530;1306;22564;-74
2023/08/14 10:03:55;;;;;;;4.60;4.30;;;;;;;29.09;53.91;99152.20;221478;1302;22605;-75
2023/08/14 10:08:58;;;;;;;6.00;4.50;;;;;;;29.23;52.99;99156.45;221512;1302;24245;-75
2023/08/14 10:14:06;;;;;;;4.20;3.80;;;;;;;29.32;52.76;99152.20;221495;1304;22596;-76
2023/08/14 10:19:12;;;;;;;4.60;3.90;;;;;;;29.36;52.21;99145.83;221619;1304;22608;-74
2023/08/14 10:24:15;;;;;;;6.80;4.60;;;;;;;29.47;52.25;99147.36;221502;1302;22568;-74
2023/08/14 10:29:17;;;;;;;4.00;3.70;;;;;;;29.53;51.68;99148.11;221584;1305;22583;-74
2023/08/14 10:34:20;;;;;;;4.50;4.20;;;;;;;29.56;51.55;99142.06;221524;1296;22610;-75
2023/08/14 10:39:35;;;;;;;5.30;4.40;;;;;;;29.67;52.35;99133.54;221472;1305;22600;-74
2023/08/14 10:44:37;;;;;;;4.30;3.80;;;;;;;29.87;52.41;99123.71;221406;1304;25577;-74
2023/08/14 10:49:43;;;;;;;6.60;4.20;;;;;;;30.02;51.56;99120.83;221044;1305;207847;-74
2023/08/14 10:54:51;;;;;;;5.10;4.60;;;;;;;30.11;51.53;99117.79;221490;1306;22568;-74
2023/08/14 10:59:57;;;;;;;4.20;3.90;;;;;;;30.26;51.75;99112.30;221662;1305;22575;-74
2023/08/14 11:05:10;;;;;;;4.20;3.90;;;;;;;30.41;51.24;99109.17;221612;1304;22562;-74
2023/08/14 11:10:14;;;;;;;4.60;4.20;;;;;;;30.53;50.78;99112.25;221582;1305;22550;-74
2023/08/14 11:15:19;;;;;;;4.30;4.00;;;;;;;30.63;50.62;99112.91;221637;1301;22606;-74
2023/08/14 11:20:22;;;;;;;4.50;4.10;;;;;;;30.70;49.86;99106.61;221670;1302;22560;-74
2023/08/14 11:25:24;;;;;;;6.30;4.10;;;;;;;30.73;50.07;99104.52;221683;1288;22597;-75
2023/08/14 11:30:30;;;;;;;4.50;4.00;;;;;;;30.89;49.74;99100.66;221660;1296;22607;-74
2023/08/14 11:35:37;;;;;;;4.90;4.50;;;;;;;30.97;49.09;99101.02;221444;1304;25274;-74
2023/08/14 11:40:41;;;;;;;4.40;4.00;;;;;;;31.10;49.30;99098.95;221495;1295;22622;-74
2023/08/14 11:45:43;;;;;;;4.50;4.10;;;;;;;31.18;49.09;99097.54;221539;1300;23506;-73
2023/08/14 11:50:47;;;;;;;7.10;4.00;;;;;;;31.30;49.14;99087.91;221671;1306;22602;-74
2023/08/14 11:55:49;;;;;;;7.70;3.80;;;;;;;31.41;48.44;99088.03;221349;1304;25410;-74
2023/08/14 12:00:51;;;;;;;4.50;3.40;;;;;;;31.45;48.29;99080.20;221540;1305;22569;-74
2023/08/14 12:06:06;;;;;;;4.00;3.70;;;;;;;31.58;47.47;99073.77;221325;1305;22769;-75
2023/08/14 12:11:08;;;;;;;6.50;4.20;;;;;;;31.50;46.50;99071.60;221641;1305;25593;-74
2023/08/14 12:16:10;;;;;;;4.60;4.10;;;;;;;31.49;47.25;99070.89;221640;1304;22641;-75
2023/08/14 12:21:20;;;;;;;5.20;4.10;;;;;;;31.50;46.95;99065.20;221584;1306;22558;-74
2023/08/14 12:26:22;;;;;;;4.80;3.90;;;;;;;31.56;47.07;99063.77;221624;1305;25353;-74
2023/08/14 12:31:24;;;;;;;5.40;3.90;;;;;;;31.65;47.25;99061.41;221367;1304;22568;-74
2023/08/14 12:36:26;;;;;;;4.00;3.60;;;;;;;31.67;47.00;99064.60;221647;1302;22580;-74
2023/08/14 12:41:28;;;;;;;5.40;3.40;;;;;;;31.73;46.60;99062.64;221364;1306;22605;-74
2023/08/14 12:46:30;;;;;;;5.30;3.50;;;;;;;31.86;46.15;99059.32;221416;1302;22575;-74
2023/08/14 12:51:33;;;;;;;3.80;3.40;;;;;;;32.01;46.51;99060.96;221642;1305;22867;-74
2023/08/14 12:56:36;;;;;;;4.20;3.90;;;;;;;32.18;46.30;99059.30;221674;1301;22574;-74
2023/08/14 13:01:38;;;;;;;4.20;3.70;;;;;;;32.25;45.16;99062.96;221576;1306;22641;-74
2023/08/14 13:06:41;;;;;;;4.80;3.70;;;;;;;32.22;45.15;99057.76;221613;1304;22579;-74
2023/08/14 13:11:43;;;;;;;4.20;3.80;;;;;;;32.19;44.96;99050.52;221533;1286;22591;-74
2023/08/14 13:16:45;;;;;;;5.10;4.30;;;;;;;32.20;45.64;99044.95;221604;1306;22714;-74
2023/08/14 13:21:47;;;;;;;4.90;4.00;;;;;;;32.28;45.59;99044.14;221232;1295;22596;-74
2023/08/14 13:26:49;;;;;;;4.20;3.80;;;;;;;32.27;44.96;99043.68;221407;1305;22606;-75
2023/08/14 13:31:51;;;;;;;4.50;3.90;;;;;;;32.27;44.76;99046.35;221633;1305;22576;-75
2023/08/14 13:36:52;;;;;;;5.20;3.90;;;;;;;32.24;45.42;99039.02;221488;1305;22602;-75
2023/08/14 13:41:55;;;;;;;4.50;4.20;;;;;;;32.32;45.53;99037.50;221573;1301;22572;-76
2023/08/14 13:46:56;;;;;;;4.50;3.90;;;;;;;32.33;44.65;99039.34;221403;1306;22579;-75
2023/08/14 13:51:59;;;;;;;4.90;3.60;;;;;;;32.36;44.58;99039.77;221475;1305;22580;-74
2023/08/14 13:57:01;;;;;;;5.90;3.60;;;;;;;32.37;44.75;99037.80;221277;1305;22589;-75
2023/08/14 14:02:03;;;;;;;4.80;3.70;;;;;;;32.43;45.16;99033.04;221529;1282;22572;-74
2023/08/14 14:07:05;;;;;;;4.20;3.80;;;;;;;32.47;44.96;99027.98;221472;1300;22595;-73
2023/08/14 14:12:07;;;;;;;4.30;3.80;;;;;;;32.51;44.87;99025.19;221461;1295;23346;-74
2023/08/14 14:17:09;;;;;;;4.30;3.90;;;;;;;32.52;44.17;99020.55;221484;1301;22580;-74
2023/08/14 14:22:11;;;;;;;6.20;4.00;;;;;;;32.54;44.64;99019.51;221562;1305;22570;-74
2023/08/14 14:27:13;;;;;;;3.80;3.50;;;;;;;32.58;44.19;99009.01;221555;1304;22622;-74
2023/08/14 14:32:17;;;;;;;6.20;3.90;;;;;;;32.64;44.51;99009.21;221300;1305;22586;-74
2023/08/14 14:37:19;;;;;;;4.50;3.50;;;;;;;32.68;44.06;98999.91;221534;1302;22617;-75
2023/08/14 14:42:24;;;;;;;3.90;3.40;;;;;;;32.63;43.30;98998.88;221428;1305;24921;-73
2023/08/14 14:47:26;;;;;;;4.10;3.50;;;;;;;32.55;43.59;98997.59;221472;1305;22594;-74
2023/08/14 14:52:28;;;;;;;5.10;4.10;;;;;;;32.54;44.07;98998.04;221468;1305;22579;-74
2023/08/14 14:57:30;;;;;;;3.70;3.40;;;;;;;32.55;43.84;98991.36;221135;1306;22552;-73
2023/08/14 15:02:32;;;;;;;3.60;3.30;;;;;;;32.59;43.71;98988.40;221283;1304;22603;-74
2023/08/14 15:07:34;;;;;;;3.60;3.30;;;;;;;32.61;43.91;98986.11;221533;1301;22607;-74
2023/08/14 15:12:36;;;;;;;2.00;1.90;;;;;;;32.60;43.59;98981.25;221487;1292;22579;-74
2023/08/14 15:17:38;;;;;;;3.90;3.60;;;;;;;32.64;43.62;98978.35;221482;1305;22559;-73
2023/08/14 15:22:45;;;;;;;3.70;3.30;;;;;;;32.64;43.93;98971.06;221230;1305;22568;-73
2023/08/14 15:27:47;;;;;;;4.60;3.60;;;;;;;32.60;43.92;98967.41;221551;1299;22613;-74
2023/08/14 15:32:49;;;;;;;3.90;3.50;;;;;;;32.54;44.12;98963.39;221583;1302;22608;-74
2023/08/14 15:37:51;;;;;;;3.80;3.50;;;;;;;32.48;43.76;98964.42;221589;1301;22764;-74
2023/08/14 15:42:53;;;;;;;4.10;3.80;;;;;;;32.39;43.73;98967.36;221180;1305;22583;-74
2023/08/14 15:47:58;;;;;;;4.00;3.40;;;;;;;32.32;44.24;98969.67;221591;1305;25441;-74
2023/08/14 15:53:00;;;;;;;4.50;3.80;;;;;;;32.27;43.52;98968.14;221559;1302;22572;-74
2023/08/14 15:58:02;;;;;;;5.00;3.90;;;;;;;32.08;42.61;98973.52;221280;1304;22628;-73
2023/08/14 16:03:05;;;;;;;4.00;3.70;;;;;;;31.89;43.33;98975.13;221493;1289;22589;-74
2023/08/14 16:08:08;;;;;;;4.20;3.90;;;;;;;31.76;43.75;98969.88;221580;1305;22607;-73
2023/08/14 16:13:10;;;;;;;4.00;3.70;;;;;;;31.66;43.80;98974.55;221569;1288;22564;-73
2023/08/14 16:18:12;;;;;;;4.50;3.80;;;;;;;31.55;43.64;98978.72;221556;1282;22580;-74
2023/08/14 16:23:14;;;;;;;5.30;4.50;;;;;;;31.44;44.18;98989.71;221469;1304;22676;-74
2023/08/14 16:28:16;;;;;;;5.20;4.80;;;;;;;31.34;44.29;98992.20;221575;1302;22630;-74
2023/08/14 16:33:18;;;;;;;4.60;4.20;;;;;;;31.22;44.44;98998.90;221587;1305;22576;-75
2023/08/14 16:38:20;;;;;;;7.50;4.30;;;;;;;31.08;44.62;99005.08;221506;1305;22633;-74
2023/08/14 16:43:22;;;;;;;6.60;4.20;;;;;;;30.94;45.06;99009.94;221615;1292;22595;-74
2023/08/14 16:48:24;;;;;;;4.20;3.80;;;;;;;30.75;45.11;99007.91;221346;1305;22583;-74
2023/08/14 16:53:29;;;;;;;7.20;4.40;;;;;;;30.50;45.63;99007.27;221601;1304;23158;-74
2023/08/14 16:58:31;;;;;;;5.10;4.60;;;;;;;30.20;45.88;99004.10;221497;1304;23049;-74
2023/08/14 17:03:33;;;;;;;4.60;4.20;;;;;;;29.92;46.50;99011.65;221514;1288;22565;-73
2023/08/14 17:08:35;;;;;;;6.30;4.30;;;;;;;29.64;47.15;99008.92;221486;1305;22570;-73
2023/08/14 17:13:40;;;;;;;5.50;4.40;;;;;;;29.37;47.40;99010.61;221552;1298;22569;-74
2023/08/14 17:18:41;;;;;;;6.60;4.90;;;;;;;29.10;48.05;99013.45;221576;1298;22575;-74
2023/08/14 17:23:43;;;;;;;4.80;4.40;;;;;;;28.85;48.34;99014.43;221462;1304;25322;-74
2023/08/14 17:28:45;;;;;;;4.70;4.30;;;;;;;28.59;48.77;99022.13;221491;1304;22572;-74
2023/08/14 17:33:47;;;;;;;7.50;4.80;;;;;;;28.34;49.15;99023.67;221482;1292;22580;-74
2023/08/14 17:38:49;;;;;;;5.50;4.70;;;;;;;28.10;49.58;99026.38;221496;1303;24413;-74
2023/08/14 17:43:52;;;;;;;7.80;4.70;;;;;;;27.85;50.29;99028.80;221506;1304;22956;-73
2023/08/14 17:48:54;;;;;;;7.30;5.30;;;;;;;27.58;51.04;99025.47;221605;1298;22579;-74
2023/08/14 17:53:56;;;;;;;6.30;5.70;;;;;;;27.34;51.68;99029.31;221570;1298;22575;-74
2023/08/14 17:58:58;;;;;;;6.30;5.70;;;;;;;27.11;52.35;99030.48;221542;1304;22576;-74
2023/08/14 18:04:00;;;;;;;8.00;5.80;;;;;;;26.87;52.98;99034.41;221549;1298;22580;-74
2023/08/14 18:09:03;;;;;;;7.30;5.80;;;;;;;26.66;53.25;99036.33;221470;1300;22593;-74
2023/08/14 18:14:06;;;;;;;8.30;6.30;;;;;;;26.45;53.34;99040.27;221191;1301;22953;-74
2023/08/14 18:19:08;;;;;;;8.40;6.70;;;;;;;26.25;54.04;99044.42;221407;1298;22569;-74
2023/08/14 18:24:29;;;;;;;12.00;6.10;;;;;;;26.07;54.26;99047.87;221453;1302;24049;-73
2023/08/14 18:29:31;;;;;;;8.00;6.90;;;;;;;25.89;54.68;99045.63;221475;1302;22566;-74
2023/08/14 18:34:33;;;;;;;10.60;7.30;;;;;;;25.71;54.98;99045.15;221466;1299;22994;-74
2023/08/14 18:39:35;;;;;;;11.70;6.90;;;;;;;25.53;55.57;99045.48;221451;1301;22568;-74
2023/08/14 18:44:37;;;;;;;8.90;7.00;;;;;;;25.35;56.14;99048.66;221456;1304;22590;-74
2023/08/14 18:49:44;;;;;;;9.70;7.50;;;;;;;25.15;56.72;99049.89;221249;1304;22577;-74
2023/08/14 18:54:46;;;;;;;9.20;7.30;;;;;;;24.95;57.03;99047.89;221515;1304;22572;-73
2023/08/14 18:59:48;;;;;;;10.30;7.90;;;;;;;24.76;57.89;99046.98;221465;1295;22621;-74
2023/08/14 19:04:50;;;;;;;9.60;7.30;;;;;;;24.57;58.16;99054.32;221484;1301;25310;-74
2023/08/14 19:09:52;;;;;;;8.80;6.70;;;;;;;24.40;58.78;99059.96;221439;1304;26180;-74
2023/08/14 19:14:54;;;;;;;10.20;6.70;;;;;;;24.24;58.98;99064.34;221550;1301;22528;-74
2023/08/14 19:19:56;;;;;;;7.40;6.80;;;;;;;24.11;59.38;99065.28;221614;1298;22576;-74
2023/08/14 19:24:58;;;;;;;10.30;7.10;;;;;;;23.98;59.80;99070.12;221638;1305;22575;-74
2023/08/14 19:30:00;;;;;;;8.50;7.00;;;;;;;23.85;60.04;99068.91;221591;1301;24357;-74
2023/08/14 19:35:04;;;;;;;10.80;8.00;;;;;;;23.71;60.32;99074.29;221331;1304;22746;-74
2023/08/14 19:40:09;;;;;;;12.20;8.70;;;;;;;23.57;60.54;99072.67;221501;1283;22608;-74
2023/08/14 19:45:11;;;;;;;11.80;8.20;;;;;;;23.44;60.88;99075.84;221594;1301;22566;-74
2023/08/14 19:50:13;;;;;;;10.40;7.60;;;;;;;23.31;61.16;99078.27;221611;1301;22586;-74
2023/08/14 19:55:15;;;;;;;9.30;7.60;;;;;;;23.19;61.52;99080.70;221608;1283;22577;-74
2023/08/14 20:00:17;;;;;;;7.90;7.20;;;;;;;23.07;61.84;99091.05;221513;1305;22565;-74
2023/08/14 20:05:19;;;;;;;8.70;7.40;;;;;;;22.95;62.32;99094.43;221592;1283;22614;-74
2023/08/14 20:10:22;;;;;;;8.10;7.30;;;;;;;22.83;62.70;99095.17;221508;1305;22670;-74
2023/08/14 20:15:24;;;;;;;9.20;7.40;;;;;;;22.71;62.90;99102.70;221497;1305;22583;-74
2023/08/14 20:20:26;;;;;;;11.10;7.90;;;;;;;22.60;62.99;99102.19;221570;1304;22624;-74
2023/08/14 20:25:28;;;;;;;10.40;8.60;;;;;;;22.50;63.39;99105.08;221468;1305;22572;-74
2023/08/14 20:30:30;;;;;;;17.10;7.90;;;;;;;22.40;63.71;99102.27;221616;1302;22572;-75
2023/08/14 20:35:43;;;;;;;13.20;8.00;;;;;;;22.31;64.03;99102.28;221533;1304;22606;-73
2023/08/14 20:40:45;;;;;;;12.20;8.30;;;;;;;22.20;64.48;99107.46;221362;1305;22565;-74
2023/08/14 20:45:47;;;;;;;13.30;10.20;;;;;;;22.07;64.73;99111.96;221591;1298;22517;-73
2023/08/14 20:50:49;;;;;;;16.00;10.40;;;;;;;21.95;65.02;99110.64;221572;1305;23469;-73
2023/08/14 20:55:51;;;;;;;16.80;10.20;;;;;;;21.85;65.52;99115.95;221533;1304;25949;-74
2023/08/14 21:00:53;;;;;;;12.20;9.50;;;;;;;21.73;65.70;99107.77;221623;1305;22628;-74
2023/08/14 21:05:56;;;;;;;12.30;9.20;;;;;;;21.64;66.14;99109.16;221668;1305;22587;-73
2023/08/14 21:11:01;;;;;;;10.40;8.40;;;;;;;21.56;66.31;99108.37;221569;1305;22568;-73
2023/08/14 21:16:03;;;;;;;13.20;9.20;;;;;;;21.48;66.52;99110.60;221578;1301;22513;-74
2023/08/14 21:21:05;;;;;;;14.60;9.20;;;;;;;21.39;66.79;99108.49;221477;1304;22577;-75
2023/08/14 21:26:07;;;;;;;14.50;8.60;;;;;;;21.30;67.01;99107.95;221572;1298;22687;-74
2023/08/14 21:31:09;;;;;;;10.40;8.40;;;;;;;21.22;67.17;99106.06;221456;1292;22555;-74
2023/08/14 21:36:11;;;;;;;16.50;7.40;;;;;;;21.15;67.53;99107.02;221578;1305;22572;-75
2023/08/14 21:41:13;;;;;;;10.30;7.50;;;;;;;21.08;67.66;99102.58;221446;1304;22619;-74
2023/08/14 21:46:15;;;;;;;8.70;7.80;;;;;;;21.03;67.77;99100.10;221632;1304;22582;-76
2023/08/14 21:51:17;;;;;;;12.40;7.70;;;;;;;20.99;67.76;99094.02;221564;1302;22698;-74
2023/08/14 21:56:19;;;;;;;10.30;7.80;;;;;;;20.93;67.83;99090.33;221556;1301;22594;-74
2023/08/14 22:01:21;;;;;;;12.20;8.80;;;;;;;20.87;68.06;99091.70;221553;1304;22599;-74
2023/08/14 22:06:23;;;;;;;19.00;8.90;;;;;;;20.80;68.16;99089.93;221563;1301;22570;-73
2023/08/14 22:11:26;;;;;;;13.70;9.10;;;;;;;20.73;68.45;99086.81;221574;1302;25258;-74
2023/08/14 22:16:28;;;;;;;9.50;8.20;;;;;;;20.65;68.63;99087.50;221470;1304;22567;-74
2023/08/14 22:21:30;;;;;;;12.10;9.30;;;;;;;20.56;68.82;99086.51;221427;1304;22583;-73
2023/08/14 22:26:32;;;;;;;10.20;8.00;;;;;;;20.48;69.09;99084.44;221600;1302;23649;-74
2023/08/14 22:31:34;;;;;;;10.10;9.00;;;;;;;20.39;69.30;99089.69;221465;1303;24250;-73
2023/08/14 22:36:36;;;;;;;10.40;9.00;;;;;;;20.30;69.42;99084.02;221390;1305;22572;-73
2023/08/14 22:41:38;;;;;;;13.70;10.10;;;;;;;20.20;69.69;99085.08;221574;1301;22559;-73
2023/08/14 22:46:40;;;;;;;9.60;8.60;;;;;;;20.09;69.99;99086.03;221581;1302;24332;-73
2023/08/14 22:51:42;;;;;;;9.50;8.30;;;;;;;19.99;70.27;99090.59;221156;1305;22571;-73
2023/08/14 22:56:43;;;;;;;11.60;9.40;;;;;;;19.92;70.52;99096.23;221601;1298;24254;-74
2023/08/14 23:01:45;;;;;;;13.10;9.30;;;;;;;19.87;70.80;99095.34;221347;1304;23295;-73
2023/08/14 23:06:47;;;;;;;11.50;9.20;;;;;;;19.82;71.08;99100.29;221656;1305;22605;-73
2023/08/14 23:11:49;;;;;;;13.70;9.50;;;;;;;19.77;71.31;99100.41;221609;1305;23459;-73
2023/08/14 23:16:51;;;;;;;13.60;10.60;;;;;;;19.73;71.42;99098.95;221621;1298;22556;-74
2023/08/14 23:21:53;;;;;;;10.30;8.70;;;;;;;19.67;71.68;99097.82;221553;1291;22609;-73
2023/08/14 23:26:55;;;;;;;14.60;9.70;;;;;;;19.62;71.87;99096.64;221599;1301;22571;-73